Time;durP1;ratioP1;P1;durP2;ratioP2;P2;SDS_P1;SDS_P2;PMS_P1;PMS_P2;Temp;Humidity;BMP_temperature;BMP_pressure;BME280_temperature;BME280_humidity;BME280_pressure;Samples;Min_cycle;Max_cycle;Signal;HPM_P1;HPM_P2
2022/04/09 00:01:04;;;;;;;5.43;1.80;;;;;;;;;;4996620;28;20359;-78
2022/04/09 00:03:30;;;;;;;7.33;2.07;;;;;;;;;;5008349;28;20224;-78
2022/04/09 00:05:55;;;;;;;7.33;1.87;;;;;;;;;;5021145;28;20219;-78
2022/04/09 00:08:23;;;;;;;6.00;1.97;;;;;;;;;;5023933;28;20292;-77
2022/04/09 00:10:51;;;;;;;5.97;1.97;;;;;;;;;;4988049;28;20217;-78
2022/04/09 00:13:19;;;;;;;6.47;1.97;;;;;;;;;;4995359;28;20232;-78
2022/04/09 00:15:47;;;;;;;6.10;2.00;;;;;;;;;;5015162;28;20212;-78
2022/04/09 00:18:15;;;;;;;5.73;2.17;;;;;;;;;;5026107;28;20220;-78
2022/04/09 00:20:41;;;;;;;5.53;2.37;;;;;;;;;;5001483;28;20216;-77
2022/04/09 00:23:15;;;;;;;5.33;2.03;;;;;;;;;;5019696;28;20216;-77
2022/04/09 00:25:41;;;;;;;4.87;2.07;;;;;;;;;;5004107;28;20233;-78
2022/04/09 00:28:06;;;;;;;6.53;2.23;;;;;;;;;;5022891;28;20376;-77
2022/04/09 00:30:32;;;;;;;4.47;1.73;;;;;;;;;;5013605;28;20258;-77
2022/04/09 00:32:57;;;;;;;7.17;2.43;;;;;;;;;;5038375;28;20311;-78
2022/04/09 00:35:23;;;;;;;7.20;2.03;;;;;;;;;;5003129;28;20299;-77
2022/04/09 00:37:50;;;;;;;7.80;2.27;;;;;;;;;;5022617;28;20244;-78
2022/04/09 00:40:20;;;;;;;3.87;2.10;;;;;;;;;;5011643;28;20262;-78
2022/04/09 00:42:48;;;;;;;5.63;2.60;;;;;;;;;;4985990;28;20284;-77
2022/04/09 00:45:16;;;;;;;7.00;2.40;;;;;;;;;;5014352;28;20267;-78
2022/04/09 00:47:41;;;;;;;6.27;2.87;;;;;;;;;;4999700;28;20231;-78
2022/04/09 00:50:08;;;;;;;7.67;2.60;;;;;;;;;;4985260;28;20706;-78
2022/04/09 00:52:34;;;;;;;9.00;2.70;;;;;;;;;;5017814;28;20274;-78
2022/04/09 00:55:02;;;;;;;4.73;2.67;;;;;;;;;;5005556;28;20221;-77
2022/04/09 00:57:28;;;;;;;5.37;2.90;;;;;;;;;;4994683;28;20260;-78
2022/04/09 00:59:53;;;;;;;5.73;2.60;;;;;;;;;;4998053;28;20704;-78
2022/04/09 01:02:19;;;;;;;4.87;2.23;;;;;;;;;;5040160;28;20232;-78
2022/04/09 01:04:44;;;;;;;9.40;2.60;;;;;;;;;;5004414;28;20296;-78
2022/04/09 01:07:10;;;;;;;6.27;2.20;;;;;;;;;;5022639;28;20633;-78
2022/04/09 01:09:38;;;;;;;9.27;2.17;;;;;;;;;;5003430;28;20241;-78
2022/04/09 01:12:04;;;;;;;9.77;2.33;;;;;;;;;;4996493;28;20303;-79
2022/04/09 01:14:34;;;;;;;7.33;2.23;;;;;;;;;;4980739;28;20259;-77
2022/04/09 01:17:02;;;;;;;4.93;2.00;;;;;;;;;;5008608;28;20243;-77
2022/04/09 01:19:30;;;;;;;5.77;2.17;;;;;;;;;;5028119;28;20258;-77
2022/04/09 01:21:59;;;;;;;8.60;2.80;;;;;;;;;;5009144;28;20792;-77
2022/04/09 01:24:25;;;;;;;7.83;2.20;;;;;;;;;;5034650;28;20220;-78
2022/04/09 01:26:54;;;;;;;7.13;2.60;;;;;;;;;;5001534;28;20262;-77
2022/04/09 01:29:25;;;;;;;11.67;2.80;;;;;;;;;;5013415;28;20262;-78
2022/04/09 01:31:51;;;;;;;6.60;3.10;;;;;;;;;;5009681;28;20295;-77
2022/04/09 01:34:16;;;;;;;9.10;3.10;;;;;;;;;;4988838;28;20700;-77
2022/04/09 01:36:42;;;;;;;13.33;3.30;;;;;;;;;;4996021;28;20224;-78
2022/04/09 01:39:07;;;;;;;10.00;3.07;;;;;;;;;;5012903;28;20642;-77
2022/04/09 01:41:33;;;;;;;6.47;3.20;;;;;;;;;;5005900;28;20213;-77
2022/04/09 01:44:06;;;;;;;7.77;3.33;;;;;;;;;;5000026;28;20304;-77
2022/04/09 01:46:34;;;;;;;12.30;3.60;;;;;;;;;;4978875;28;20279;-76
2022/04/09 01:49:02;;;;;;;9.47;3.60;;;;;;;;;;5008225;28;20219;-78
2022/04/09 01:51:28;;;;;;;8.43;3.50;;;;;;;;;;5043363;28;20269;-78
2022/04/09 01:53:53;;;;;;;9.97;3.63;;;;;;;;;;5015533;28;20224;-78
2022/04/09 01:56:21;;;;;;;11.33;3.90;;;;;;;;;;4995976;28;20309;-77
2022/04/09 01:58:50;;;;;;;12.30;3.70;;;;;;;;;;4994374;28;20713;-79
2022/04/09 02:01:18;;;;;;;6.80;3.03;;;;;;;;;;5020345;28;20224;-78
2022/04/09 02:03:43;;;;;;;9.47;3.33;;;;;;;;;;5013686;28;20217;-77
2022/04/09 02:06:12;;;;;;;9.70;3.60;;;;;;;;;;4996670;28;20240;-77
2022/04/09 02:08:42;;;;;;;8.43;3.23;;;;;;;;;;5000103;28;20220;-77
2022/04/09 02:11:10;;;;;;;8.87;3.03;;;;;;;;;;5005321;28;20271;-77
2022/04/09 02:13:35;;;;;;;7.77;3.00;;;;;;;;;;5014425;28;20629;-77
2022/04/09 02:16:04;;;;;;;9.23;3.10;;;;;;;;;;5031507;28;20220;-78
2022/04/09 02:18:29;;;;;;;12.93;3.60;;;;;;;;;;5006818;28;20284;-77
2022/04/09 02:20:55;;;;;;;10.00;3.50;;;;;;;;;;5047335;28;20224;-77
2022/04/09 02:23:21;;;;;;;9.67;3.60;;;;;;;;;;5037477;28;20300;-76
2022/04/09 02:25:46;;;;;;;10.23;3.40;;;;;;;;;;5026833;28;20311;-77
2022/04/09 02:28:12;;;;;;;10.53;3.57;;;;;;;;;;5033864;28;20252;-77
2022/04/09 02:30:38;;;;;;;8.67;3.30;;;;;;;;;;5054449;28;20238;-78
2022/04/09 02:33:07;;;;;;;8.33;3.37;;;;;;;;;;5037831;28;20808;-77
2022/04/09 02:35:40;;;;;;;11.40;3.40;;;;;;;;;;5027061;28;20240;-79
2022/04/09 02:38:09;;;;;;;11.73;3.40;;;;;;;;;;5014703;28;20298;-78
2022/04/09 02:40:38;;;;;;;10.60;3.40;;;;;;;;;;5016809;28;20221;-78
2022/04/09 02:43:06;;;;;;;6.60;3.30;;;;;;;;;;5019344;28;20216;-78
2022/04/09 02:45:34;;;;;;;7.80;4.20;;;;;;;;;;5022635;28;20600;-78
2022/04/09 02:48:06;;;;;;;10.80;3.73;;;;;;;;;;5026728;28;20220;-78
2022/04/09 02:50:36;;;;;;;10.47;3.90;;;;;;;;;;5024602;28;20228;-78
2022/04/09 02:53:04;;;;;;;8.87;3.87;;;;;;;;;;5015974;28;20229;-78
2022/04/09 02:55:31;;;;;;;12.73;4.17;;;;;;;;;;5028077;28;20220;-77
2022/04/09 02:58:01;;;;;;;7.57;3.70;;;;;;;;;;5013343;28;20683;-78
2022/04/09 03:00:32;;;;;;;9.93;3.63;;;;;;;;;;4998901;28;20221;-78
2022/04/09 03:02:59;;;;;;;9.87;3.57;;;;;;;;;;4981592;28;20247;-78
2022/04/09 03:05:32;;;;;;;6.40;3.60;;;;;;;;;;4994180;28;20229;-79
2022/04/09 03:08:02;;;;;;;7.70;3.77;;;;;;;;;;5010337;28;20228;-78
2022/04/09 03:10:30;;;;;;;11.87;3.57;;;;;;;;;;4999954;28;20251;-77
2022/04/09 03:12:58;;;;;;;7.87;3.77;;;;;;;;;;5028798;28;20244;-77
2022/04/09 03:15:26;;;;;;;8.87;4.20;;;;;;;;;;4998617;28;20237;-77
2022/04/09 03:17:53;;;;;;;6.50;3.60;;;;;;;;;;5006312;28;20316;-77
2022/04/09 03:20:22;;;;;;;8.90;3.80;;;;;;;;;;5014861;28;20608;-78
2022/04/09 03:22:50;;;;;;;9.07;3.83;;;;;;;;;;5004428;28;20318;-77
2022/04/09 03:25:26;;;;;;;8.23;3.93;;;;;;;;;;5006422;28;20216;-77
2022/04/09 03:27:54;;;;;;;8.97;3.87;;;;;;;;;;5015858;28;20216;-77
2022/04/09 03:30:20;;;;;;;8.43;3.60;;;;;;;;;;4988285;28;20786;-77
2022/04/09 03:32:47;;;;;;;6.67;3.40;;;;;;;;;;4984096;28;20224;-77
2022/04/09 03:35:18;;;;;;;7.80;3.27;;;;;;;;;;5034710;28;20216;-78
2022/04/09 03:37:45;;;;;;;6.57;3.37;;;;;;;;;;5040086;28;20236;-77
2022/04/09 03:40:17;;;;;;;8.10;3.20;;;;;;;;;;5004283;28;20236;-77
2022/04/09 03:42:47;;;;;;;10.53;3.43;;;;;;;;;;5009632;28;20230;-77
2022/04/09 03:45:16;;;;;;;6.87;3.40;;;;;;;;;;5036814;28;20220;-79
2022/04/09 03:47:41;;;;;;;9.33;3.00;;;;;;;;;;5028957;28;20236;-79
2022/04/09 03:50:14;;;;;;;8.40;3.20;;;;;;;;;;5025423;28;20244;-79
2022/04/09 03:52:45;;;;;;;6.70;3.03;;;;;;;;;;5027567;28;20607;-79
2022/04/09 03:55:13;;;;;;;6.90;3.20;;;;;;;;;;5011198;28;20643;-78
2022/04/09 03:57:39;;;;;;;7.80;3.50;;;;;;;;;;5005789;28;20234;-79
2022/04/09 04:00:05;;;;;;;8.63;3.60;;;;;;;;;;5019467;28;20296;-78
2022/04/09 04:02:39;;;;;;;6.93;3.37;;;;;;;;;;5005679;28;20245;-78
2022/04/09 04:05:06;;;;;;;8.77;4.27;;;;;;;;;;4999022;28;20220;-78
2022/04/09 04:07:35;;;;;;;6.93;4.13;;;;;;;;;;5021927;28;20228;-78
2022/04/09 04:10:05;;;;;;;9.50;4.17;;;;;;;;;;5015557;28;20221;-78
2022/04/09 04:12:33;;;;;;;7.17;5.17;;;;;;;;;;5034225;28;20266;-78
2022/04/09 04:14:59;;;;;;;8.80;4.47;;;;;;;;;;5025223;28;20219;-78
2022/04/09 04:17:25;;;;;;;7.13;3.50;;;;;;;;;;5003199;28;20217;-78
2022/04/09 04:19:51;;;;;;;7.90;3.90;;;;;;;;;;5007592;28;20764;-79
2022/04/09 04:22:20;;;;;;;5.97;2.87;;;;;;;;;;5018540;28;20252;-77
2022/04/09 04:24:46;;;;;;;9.03;3.20;;;;;;;;;;5011162;28;20893;-78
2022/04/09 04:27:15;;;;;;;8.57;2.60;;;;;;;;;;5019688;28;20228;-78
2022/04/09 04:29:42;;;;;;;4.63;2.40;;;;;;;;;;5043884;28;20830;-78
2022/04/09 04:32:09;;;;;;;7.03;2.73;;;;;;;;;;5005240;28;20228;-78
2022/04/09 04:34:35;;;;;;;6.53;2.90;;;;;;;;;;5010075;28;20251;-78
2022/04/09 04:37:00;;;;;;;5.37;2.87;;;;;;;;;;5006975;28;20307;-78
2022/04/09 04:39:28;;;;;;;4.83;2.63;;;;;;;;;;5005204;28;20217;-78
2022/04/09 04:41:54;;;;;;;7.10;2.80;;;;;;;;;;5003547;28;20433;-79
2022/04/09 04:44:20;;;;;;;6.50;2.77;;;;;;;;;;5006906;28;20300;-78
2022/04/09 04:46:52;;;;;;;6.27;3.03;;;;;;;;;;5018719;28;20220;-78
2022/04/09 04:49:26;;;;;;;5.50;2.50;;;;;;;;;;5017290;28;20228;-78
2022/04/09 04:52:01;;;;;;;11.50;3.00;;;;;;;;;;5007295;28;20215;-79
2022/04/09 04:54:28;;;;;;;9.37;3.03;;;;;;;;;;5035185;28;20239;-77
2022/04/09 04:56:56;;;;;;;5.33;2.40;;;;;;;;;;5005770;28;20283;-77
2022/04/09 04:59:24;;;;;;;7.47;2.73;;;;;;;;;;5013213;28;20240;-77
2022/04/09 05:01:50;;;;;;;8.80;2.67;;;;;;;;;;4996836;28;20744;-77
2022/04/09 05:04:17;;;;;;;7.33;2.83;;;;;;;;;;5006253;28;20229;-80
2022/04/09 05:06:55;;;;;;;6.43;2.97;;;;;;;;;;5027778;28;20232;-78
2022/04/09 05:09:25;;;;;;;9.17;2.97;;;;;;;;;;5026352;28;20232;-77
2022/04/09 05:11:54;;;;;;;7.57;3.50;;;;;;;;;;4995766;28;20274;-77
2022/04/09 05:14:28;;;;;;;5.87;3.10;;;;;;;;;;5014831;28;20390;-77
2022/04/09 05:16:59;;;;;;;10.40;3.17;;;;;;;;;;5033144;28;20225;-79
2022/04/09 05:19:29;;;;;;;6.83;3.00;;;;;;;;;;5013297;28;20217;-78
2022/04/09 05:22:06;;;;;;;8.63;3.60;;;;;;;;;;5013181;28;20701;-78
2022/04/09 05:24:43;;;;;;;8.77;3.70;;;;;;;;;;4997321;28;20267;-78
2022/04/09 05:27:12;;;;;;;7.87;3.33;;;;;;;;;;4998952;28;20697;-76
2022/04/09 05:29:38;;;;;;;7.70;3.30;;;;;;;;;;5014078;28;20221;-79
2022/04/09 05:32:07;;;;;;;6.50;2.90;;;;;;;;;;5007933;28;20209;-78
2022/04/09 05:34:40;;;;;;;6.50;2.70;;;;;;;;;;4992939;28;20664;-78
2022/04/09 05:37:06;;;;;;;9.47;3.60;;;;;;;;;;5009389;28;20766;-79
2022/04/09 05:39:37;;;;;;;7.03;3.30;;;;;;;;;;5014767;28;20218;-78
2022/04/09 05:42:07;;;;;;;7.47;3.93;;;;;;;;;;5011558;28;20714;-79
2022/04/09 05:44:33;;;;;;;6.30;3.80;;;;;;;;;;5047067;28;20221;-78
2022/04/09 05:47:00;;;;;;;4.90;3.33;;;;;;;;;;5014108;28;20221;-79
2022/04/09 05:49:29;;;;;;;5.93;3.40;;;;;;;;;;4997742;28;20598;-77
2022/04/09 05:51:55;;;;;;;7.07;3.03;;;;;;;;;;5010865;28;20213;-78
2022/04/09 05:54:23;;;;;;;8.53;3.33;;;;;;;;;;5010379;28;20643;-78
2022/04/09 05:56:52;;;;;;;5.77;2.90;;;;;;;;;;5031583;28;20251;-79
2022/04/09 05:59:18;;;;;;;9.63;2.97;;;;;;;;;;5017657;28;20224;-79
2022/04/09 06:01:44;;;;;;;7.00;2.77;;;;;;;;;;5017526;28;20588;-79
2022/04/09 06:04:19;;;;;;;3.80;2.50;;;;;;;;;;5015886;28;20236;-79
2022/04/09 06:06:48;;;;;;;5.93;3.00;;;;;;;;;;5007690;28;20234;-79
2022/04/09 06:09:13;;;;;;;5.93;2.77;;;;;;;;;;4998091;28;20716;-77
2022/04/09 06:11:48;;;;;;;5.57;2.80;;;;;;;;;;5017476;28;20219;-78
2022/04/09 06:14:19;;;;;;;4.77;2.40;;;;;;;;;;5013267;28;20244;-80
2022/04/09 06:16:45;;;;;;;6.87;2.80;;;;;;;;;;5014141;28;20235;-77
2022/04/09 06:19:12;;;;;;;9.40;2.87;;;;;;;;;;4999941;28;20737;-79
2022/04/09 06:21:40;;;;;;;6.60;2.27;;;;;;;;;;5014327;28;20236;-77
2022/04/09 06:24:08;;;;;;;8.97;2.87;;;;;;;;;;5028715;28;20217;-79
2022/04/09 06:26:34;;;;;;;10.30;2.60;;;;;;;;;;5017378;28;20271;-80
2022/04/09 06:29:02;;;;;;;5.83;2.30;;;;;;;;;;4986825;28;20224;-79
2022/04/09 06:31:31;;;;;;;5.70;2.63;;;;;;;;;;5004032;28;20235;-78
2022/04/09 06:34:04;;;;;;;6.90;2.70;;;;;;;;;;5014824;28;20236;-77
2022/04/09 06:36:59;;;;;;;6.93;2.73;;;;;;;;;;4981250;28;20237;-77
2022/04/09 06:40:28;;;;;;;6.83;2.70;;;;;;;;;;5020519;28;20227;-78
2022/04/09 06:43:01;;;;;;;6.83;2.80;;;;;;;;;;4984795;28;20686;-78
2022/04/09 06:45:44;;;;;;;6.10;2.40;;;;;;;;;;5022122;28;20243;-80
2022/04/09 06:48:22;;;;;;;6.37;2.60;;;;;;;;;;5013930;28;20223;-78
2022/04/09 06:51:17;;;;;;;7.43;3.50;;;;;;;;;;5018601;28;20303;-79
2022/04/09 06:53:49;;;;;;;12.37;3.77;;;;;;;;;;4978358;28;20235;-81
2022/04/09 06:59:00;;;;;;;9.60;2.73;;;;;;;;;;5003041;28;20227;-79
2022/04/09 07:01:30;;;;;;;8.10;3.03;;;;;;;;;;4973584;28;20225;-80
2022/04/09 07:04:01;;;;;;;7.33;2.50;;;;;;;;;;4996568;28;20235;-80
2022/04/09 07:07:14;;;;;;;6.20;2.50;;;;;;;;;;5005155;28;20254;-80
2022/04/09 07:09:40;;;;;;;8.93;2.92;;;;;;;;;;5014531;28;20445;-78
2022/04/09 07:12:08;;;;;;;9.50;2.60;;;;;;;;;;5017986;28;20230;-80
2022/04/09 07:14:33;;;;;;;7.80;2.83;;;;;;;;;;4998843;28;20216;-77
2022/04/09 07:17:03;;;;;;;7.90;2.50;;;;;;;;;;5022529;28;20220;-81
2022/04/09 07:20:06;;;;;;;8.97;2.53;;;;;;;;;;4990806;28;20301;-82
2022/04/09 07:22:34;;;;;;;5.70;2.50;;;;;;;;;;5001022;28;20251;-80
2022/04/09 07:25:02;;;;;;;8.80;2.50;;;;;;;;;;5005950;28;20217;-79
2022/04/09 07:27:47;;;;;;;7.13;2.40;;;;;;;;;;5018367;28;20337;-81
2022/04/09 07:30:16;;;;;;;8.37;2.10;;;;;;;;;;5011981;28;20251;-80
2022/04/09 07:32:43;;;;;;;5.97;2.00;;;;;;;;;;4997642;28;20239;-78
2022/04/09 07:35:11;;;;;;;7.00;2.53;;;;;;;;;;5007978;28;20276;-80
2022/04/09 07:37:56;;;;;;;6.07;2.40;;;;;;;;;;5004306;28;20228;-81
2022/04/09 07:40:30;;;;;;;6.67;2.37;;;;;;;;;;4988285;28;20286;-80
2022/04/09 07:43:01;;;;;;;4.93;1.97;;;;;;;;;;4996443;28;20278;-80
2022/04/09 07:45:27;;;;;;;5.37;2.10;;;;;;;;;;4977481;28;20313;-82
2022/04/09 07:48:01;;;;;;;6.43;1.90;;;;;;;;;;5012077;28;20275;-79
2022/04/09 07:50:28;;;;;;;5.43;1.93;;;;;;;;;;5001381;28;20225;-79
2022/04/09 07:52:56;;;;;;;4.90;2.00;;;;;;;;;;5025553;28;20230;-78
2022/04/09 07:55:22;;;;;;;5.73;1.90;;;;;;;;;;5008160;28;20225;-79
2022/04/09 07:57:54;;;;;;;7.80;2.60;;;;;;;;;;5020764;28;20229;-82
2022/04/09 08:00:21;;;;;;;5.70;2.30;;;;;;;;;;5020019;28;20210;-81
2022/04/09 08:02:51;;;;;;;5.23;2.50;;;;;;;;;;4974753;28;20317;-80
2022/04/09 08:05:18;;;;;;;7.10;2.27;;;;;;;;;;4976888;28;20233;-81
2022/04/09 08:07:43;;;;;;;6.50;2.13;;;;;;;;;;4982714;28;20232;-80
2022/04/09 08:10:12;;;;;;;7.13;2.37;;;;;;;;;;4999309;28;20894;-80
2022/04/09 08:12:38;;;;;;;7.20;1.97;;;;;;;;;;4984547;28;20241;-78
2022/04/09 08:15:07;;;;;;;5.10;2.10;;;;;;;;;;5002842;28;20589;-78
2022/04/09 08:17:33;;;;;;;3.87;1.53;;;;;;;;;;4971447;28;20226;-83
2022/04/09 08:20:01;;;;;;;9.10;2.20;;;;;;;;;;4999124;28;20220;-80
2022/04/09 08:22:28;;;;;;;5.97;2.03;;;;;;;;;;4998045;28;20225;-78
2022/04/09 08:24:56;;;;;;;4.60;2.03;;;;;;;;;;5000180;28;20311;-81
2022/04/09 08:27:22;;;;;;;3.83;1.60;;;;;;;;;;5007301;28;20229;-81
2022/04/09 08:29:47;;;;;;;7.67;2.07;;;;;;;;;;5009658;28;20581;-80
2022/04/09 08:32:13;;;;;;;8.13;2.10;;;;;;;;;;4991539;28;20253;-79
2022/04/09 08:34:39;;;;;;;7.07;2.07;;;;;;;;;;4997160;28;20232;-81
2022/04/09 08:37:08;;;;;;;4.40;2.00;;;;;;;;;;5018203;28;20288;-78
2022/04/09 08:39:34;;;;;;;6.67;2.20;;;;;;;;;;5023755;28;20222;-80
2022/04/09 08:42:01;;;;;;;5.67;1.93;;;;;;;;;;4984572;28;20221;-79
2022/04/09 08:44:31;;;;;;;2.63;1.30;;;;;;;;;;5006239;28;20243;-80
2022/04/09 08:46:59;;;;;;;3.73;1.90;;;;;;;;;;5015364;28;20217;-80
2022/04/09 08:49:28;;;;;;;4.83;1.80;;;;;;;;;;4993266;28;20962;-82
2022/04/09 08:51:56;;;;;;;6.07;1.77;;;;;;;;;;5027016;23;20242;-81
2022/04/09 08:55:03;;;;;;;5.10;1.47;;;;;;;;;;4990433;28;20278;-81
2022/04/09 08:57:48;;;;;;;2.53;1.30;;;;;;;;;;4978209;28;20221;-79
2022/04/09 09:00:17;;;;;;;5.30;1.53;;;;;;;;;;5002504;28;20259;-80
2022/04/09 09:02:56;;;;;;;3.53;1.50;;;;;;;;;;5006519;28;20228;-80
2022/04/09 09:05:40;;;;;;;3.97;1.40;;;;;;;;;;4990413;28;20243;-78
2022/04/09 09:08:09;;;;;;;4.60;1.43;;;;;;;;;;5003016;28;20235;-80
2022/04/09 09:10:35;;;;;;;5.83;1.90;;;;;;;;;;5019189;28;20226;-80
2022/04/09 09:13:51;;;;;;;3.33;1.23;;;;;;;;;;4978668;28;20259;-80
2022/04/09 09:16:28;;;;;;;5.47;1.40;;;;;;;;;;4960638;28;20219;-79
2022/04/09 09:19:05;;;;;;;5.60;1.50;;;;;;;;;;5029742;28;20220;-79
2022/04/09 09:21:31;;;;;;;6.70;1.40;;;;;;;;;;5011054;28;20214;-80
2022/04/09 09:24:18;;;;;;;4.23;1.53;;;;;;;;;;4981067;28;20230;-79
2022/04/09 09:26:44;;;;;;;4.60;1.40;;;;;;;;;;4993401;28;20529;-81
2022/04/09 09:29:11;;;;;;;4.43;1.10;;;;;;;;;;5005279;28;20222;-80
2022/04/09 09:31:44;;;;;;;3.70;1.30;;;;;;;;;;4994831;28;20226;-78
2022/04/09 09:34:19;;;;;;;3.40;1.20;;;;;;;;;;5003114;28;20247;-80
2022/04/09 09:36:45;;;;;;;4.43;1.27;;;;;;;;;;4992481;28;20225;-82
2022/04/09 09:39:11;;;;;;;5.13;1.70;;;;;;;;;;4996691;28;20693;-81
2022/04/09 09:41:46;;;;;;;5.63;1.67;;;;;;;;;;4984965;28;20229;-80
2022/04/09 09:44:14;;;;;;;4.93;1.40;;;;;;;;;;4997212;28;20217;-79
2022/04/09 09:46:49;;;;;;;4.03;1.43;;;;;;;;;;4990288;28;20352;-78
2022/04/09 09:52:47;;;;;;;1.50;0.83;;;;;;;;;;4979805;28;20234;-79
2022/04/09 09:55:16;;;;;;;3.27;1.10;;;;;;;;;;4978438;28;20213;-80
2022/04/09 09:57:49;;;;;;;0.77;0.63;;;;;;;;;;4977506;28;20291;-81
2022/04/09 10:00:15;;;;;;;1.77;0.63;;;;;;;;;;4974903;28;20218;-79
2022/04/09 10:02:43;;;;;;;2.97;0.90;;;;;;;;;;4979414;28;20360;-80
2022/04/09 10:05:08;;;;;;;1.10;1.00;;;;;;;;;;4948643;28;20217;-80
2022/04/09 10:07:34;;;;;;;1.13;0.90;;;;;;;;;;4994128;28;20232;-80
2022/04/09 10:10:04;;;;;;;2.83;0.77;;;;;;;;;;4983114;28;20233;-78
2022/04/09 10:12:38;;;;;;;4.30;1.73;;;;;;;;;;4967260;28;20221;-79
2022/04/09 10:15:27;;;;;;;3.40;2.40;;;;;;;;;;4985386;28;20217;-81
2022/04/09 10:17:57;;;;;;;1.13;0.80;;;;;;;;;;4981731;28;20229;-79
2022/04/09 10:20:25;;;;;;;2.00;0.90;;;;;;;;;;4967050;28;20728;-80
2022/04/09 10:22:53;;;;;;;2.17;0.87;;;;;;;;;;4979781;28;20297;-78
2022/04/09 10:25:53;;;;;;;;;;;;;;;;;;;;;
2022/04/09 10:28:43;;;;;;;2.10;0.90;;;;;;;;;;5000786;28;20309;-80
2022/04/09 10:31:23;;;;;;;3.27;1.60;;;;;;;;;;5003298;28;20264;-80
2022/04/09 10:33:54;;;;;;;2.60;1.10;;;;;;;;;;4993626;28;20280;-79
2022/04/09 10:36:40;;;;;;;3.27;1.10;;;;;;;;;;4978372;28;20313;-81
2022/04/09 10:39:25;;;;;;;3.17;1.20;;;;;;;;;;4973580;28;20345;-79
2022/04/09 10:41:56;;;;;;;3.13;1.30;;;;;;;;;;4981023;28;20225;-79
2022/04/09 10:44:39;;;;;;;1.87;1.20;;;;;;;;;;4942564;28;20244;-79
2022/04/09 10:47:07;;;;;;;3.80;1.30;;;;;;;;;;4980981;28;20731;-79
2022/04/09 10:49:36;;;;;;;7.03;5.30;;;;;;;;;;4995931;28;20214;-80
2022/04/09 10:52:11;;;;;;;2.97;1.30;;;;;;;;;;4987445;28;20228;-79
2022/04/09 10:54:39;;;;;;;2.57;1.10;;;;;;;;;;4978844;28;20225;-80
2022/04/09 10:57:09;;;;;;;1.97;1.47;;;;;;;;;;4948373;28;20733;-80
2022/04/09 10:59:36;;;;;;;2.97;1.20;;;;;;;;;;4947468;28;20233;-78
2022/04/09 11:02:04;;;;;;;2.73;1.20;;;;;;;;;;4957021;28;20222;-79
2022/04/09 11:04:36;;;;;;;3.03;0.90;;;;;;;;;;4982788;28;20230;-80
2022/04/09 11:10:27;;;;;;;3.03;1.50;;;;;;;;;;5004891;28;20254;-79
2022/04/09 11:12:53;;;;;;;2.40;1.10;;;;;;;;;;4992375;28;20294;-79
2022/04/09 11:15:24;;;;;;;5.30;1.70;;;;;;;;;;5002332;28;20214;-78
2022/04/09 11:17:58;;;;;;;4.27;2.33;;;;;;;;;;5005300;28;20241;-78
2022/04/09 11:20:33;;;;;;;4.13;1.57;;;;;;;;;;4996375;28;20236;-79
2022/04/09 11:23:12;;;;;;;3.93;1.70;;;;;;;;;;4977602;28;20222;-79
2022/04/09 11:25:39;;;;;;;5.23;1.93;;;;;;;;;;5011518;28;20228;-79
2022/04/09 11:28:17;;;;;;;5.40;2.53;;;;;;;;;;5011143;28;20237;-79
2022/04/09 11:31:06;;;;;;;3.43;1.47;;;;;;;;;;4996611;28;20240;-79
2022/04/09 11:33:54;;;;;;;4.30;1.40;;;;;;;;;;4998960;28;20282;-79
2022/04/09 11:36:23;;;;;;;5.43;1.40;;;;;;;;;;5004864;28;20235;-79
2022/04/09 11:39:20;;;;;;;4.27;1.30;;;;;;;;;;4998976;28;20221;-80
2022/04/09 11:41:49;;;;;;;3.67;1.40;;;;;;;;;;4969649;28;20224;-80
2022/04/09 11:44:27;;;;;;;2.00;0.93;;;;;;;;;;5007175;28;20241;-79
2022/04/09 11:46:53;;;;;;;4.07;0.80;;;;;;;;;;4991836;28;20244;-80
2022/04/09 11:49:21;;;;;;;2.97;1.00;;;;;;;;;;5013951;28;20210;-81
2022/04/09 11:51:54;;;;;;;2.20;0.70;;;;;;;;;;4983753;28;20236;-79
2022/04/09 11:54:20;;;;;;;2.83;1.20;;;;;;;;;;4989019;28;20223;-79
2022/04/09 11:56:48;;;;;;;2.73;1.00;;;;;;;;;;5003439;28;20233;-79
2022/04/09 11:59:13;;;;;;;3.80;1.13;;;;;;;;;;4997675;28;20233;-79
2022/04/09 12:01:43;;;;;;;4.93;1.10;;;;;;;;;;4998751;28;20336;-79
2022/04/09 12:04:13;;;;;;;3.90;1.23;;;;;;;;;;4978879;28;20226;-78
2022/04/09 12:06:39;;;;;;;4.13;1.67;;;;;;;;;;4981468;28;20240;-78
2022/04/09 12:09:28;;;;;;;8.50;5.40;;;;;;;;;;5002283;28;20241;-80
2022/04/09 12:12:01;;;;;;;3.60;1.30;;;;;;;;;;4964174;28;20257;-79
2022/04/09 12:14:30;;;;;;;3.87;1.40;;;;;;;;;;4953738;28;20235;-79
2022/04/09 12:17:13;;;;;;;5.20;1.13;;;;;;;;;;5005274;28;20225;-79
2022/04/09 12:19:45;;;;;;;4.13;1.13;;;;;;;;;;4989509;28;20217;-78
2022/04/09 12:22:19;;;;;;;2.90;1.10;;;;;;;;;;4999228;28;20221;-79
2022/04/09 12:25:06;;;;;;;4.07;1.20;;;;;;;;;;4977115;28;20234;-80
2022/04/09 12:27:45;;;;;;;2.80;1.17;;;;;;;;;;4982975;28;20229;-79
2022/04/09 12:30:41;;;;;;;2.97;1.40;;;;;;;;;;4981877;28;20229;-80
2022/04/09 12:33:10;;;;;;;3.73;1.10;;;;;;;;;;4994917;28;20295;-81
2022/04/09 12:35:39;;;;;;;4.50;1.23;;;;;;;;;;4978498;28;20221;-78
2022/04/09 12:38:07;;;;;;;3.30;1.03;;;;;;;;;;5014709;28;20297;-80
2022/04/09 12:40:33;;;;;;;4.23;1.30;;;;;;;;;;4987313;28;20225;-81
2022/04/09 12:43:21;;;;;;;3.80;1.50;;;;;;;;;;4978490;28;20220;-80
2022/04/09 12:46:14;;;;;;;2.63;1.20;;;;;;;;;;5001027;28;20218;-82
2022/04/09 12:48:49;;;;;;;4.80;1.37;;;;;;;;;;4995631;28;20210;-80
2022/04/09 12:51:22;;;;;;;5.73;1.20;;;;;;;;;;4999778;28;20240;-80
2022/04/09 12:53:49;;;;;;;4.67;1.30;;;;;;;;;;4992412;28;20218;-81
2022/04/09 12:56:15;;;;;;;4.13;1.30;;;;;;;;;;5009104;28;20236;-79
2022/04/09 12:58:41;;;;;;;2.83;1.10;;;;;;;;;;5006005;28;20314;-80
2022/04/09 13:01:09;;;;;;;4.53;1.20;;;;;;;;;;5007242;28;20210;-81
2022/04/09 13:03:39;;;;;;;5.57;1.43;;;;;;;;;;5004918;28;20285;-80
2022/04/09 13:06:04;;;;;;;7.27;1.43;;;;;;;;;;4998350;28;20232;-81
2022/04/09 13:08:30;;;;;;;3.67;1.40;;;;;;;;;;4996634;28;20229;-79
2022/04/09 13:10:58;;;;;;;5.13;1.43;;;;;;;;;;4994030;28;20257;-79
2022/04/09 13:13:23;;;;;;;4.67;1.60;;;;;;;;;;4994589;28;20225;-79
2022/04/09 13:15:49;;;;;;;5.53;1.50;;;;;;;;;;4996079;28;20252;-79
2022/04/09 13:18:20;;;;;;;5.87;1.40;;;;;;;;;;4994166;28;20233;-79
2022/04/09 13:20:48;;;;;;;4.90;1.67;;;;;;;;;;4992453;28;20234;-79
2022/04/09 13:23:16;;;;;;;5.20;2.90;;;;;;;;;;4976290;28;20234;-80
2022/04/09 13:25:42;;;;;;;4.87;1.23;;;;;;;;;;4996199;28;20248;-80
2022/04/09 13:28:13;;;;;;;7.87;3.07;;;;;;;;;;4997666;28;20246;-80
2022/04/09 13:30:42;;;;;;;5.63;1.97;;;;;;;;;;4971551;28;20249;-79
2022/04/09 13:33:07;;;;;;;3.10;1.57;;;;;;;;;;4955548;28;20225;-79
2022/04/09 13:35:36;;;;;;;5.57;1.80;;;;;;;;;;4982748;28;20230;-79
2022/04/09 13:38:05;;;;;;;5.03;1.30;;;;;;;;;;4993382;28;20229;-80
2022/04/09 13:40:34;;;;;;;8.70;1.60;;;;;;;;;;4991766;28;20263;-79
2022/04/09 13:43:00;;;;;;;4.17;1.57;;;;;;;;;;4989006;28;20217;-79
2022/04/09 13:45:28;;;;;;;4.47;1.47;;;;;;;;;;5007424;28;20228;-79
2022/04/09 13:47:56;;;;;;;4.60;1.57;;;;;;;;;;4986092;28;20233;-81
2022/04/09 13:50:22;;;;;;;7.50;2.90;;;;;;;;;;4987487;28;20247;-81
2022/04/09 13:55:46;;;;;;;5.23;1.90;;;;;;;;;;4992342;28;20222;-79
2022/04/09 13:58:11;;;;;;;6.03;1.60;;;;;;;;;;4991114;28;20248;-80
2022/04/09 14:00:37;;;;;;;6.53;2.43;;;;;;;;;;4992842;28;20234;-80
2022/04/09 14:03:02;;;;;;;6.03;1.90;;;;;;;;;;4996781;28;20260;-78
2022/04/09 14:05:35;;;;;;;5.33;1.90;;;;;;;;;;4991910;28;20218;-80
2022/04/09 14:08:08;;;;;;;6.50;1.77;;;;;;;;;;4970055;28;20228;-79
2022/04/09 14:10:36;;;;;;;4.80;1.70;;;;;;;;;;4991609;28;20224;-80
2022/04/09 14:13:14;;;;;;;8.47;2.60;;;;;;;;;;4970854;28;20252;-80
2022/04/09 14:15:40;;;;;;;9.73;2.30;;;;;;;;;;4975127;28;20227;-80
2022/04/09 14:18:10;;;;;;;8.00;2.77;;;;;;;;;;4993931;28;20217;-80
2022/04/09 14:20:45;;;;;;;6.57;2.33;;;;;;;;;;4993714;28;20218;-81
2022/04/09 14:23:36;;;;;;;7.07;2.23;;;;;;;;;;4981787;28;20253;-81
2022/04/09 14:26:04;;;;;;;6.00;2.30;;;;;;;;;;4997622;28;20221;-82
2022/04/09 14:28:30;;;;;;;8.87;2.73;;;;;;;;;;4983325;28;20739;-81
2022/04/09 14:30:57;;;;;;;6.53;2.40;;;;;;;;;;4983253;28;20236;-82
2022/04/09 14:33:23;;;;;;;9.03;2.90;;;;;;;;;;4985264;28;20222;-82
2022/04/09 14:35:49;;;;;;;8.83;2.57;;;;;;;;;;4990180;28;20227;-81
2022/04/09 14:38:17;;;;;;;7.10;1.90;;;;;;;;;;4989432;28;20248;-81
2022/04/09 14:40:59;;;;;;;5.57;2.03;;;;;;;;;;4965381;28;20202;-83
2022/04/09 14:43:25;;;;;;;4.60;2.00;;;;;;;;;;4979741;28;20248;-81
2022/04/09 14:45:55;;;;;;;5.37;1.70;;;;;;;;;;4978662;28;20283;-81
2022/04/09 14:48:21;;;;;;;7.80;2.30;;;;;;;;;;4975687;28;20241;-80
2022/04/09 14:50:49;;;;;;;6.83;2.07;;;;;;;;;;4983827;28;20237;-80
2022/04/09 14:53:15;;;;;;;9.57;2.20;;;;;;;;;;4963778;28;20213;-81
2022/04/09 14:55:45;;;;;;;7.60;2.03;;;;;;;;;;4999895;28;20224;-81
2022/04/09 14:58:13;;;;;;;5.23;2.43;;;;;;;;;;4980839;28;20226;-82
2022/04/09 15:00:44;;;;;;;6.93;2.13;;;;;;;;;;4981239;28;20221;-80
2022/04/09 15:03:11;;;;;;;8.30;2.50;;;;;;;;;;4988459;28;20237;-81
2022/04/09 15:05:36;;;;;;;7.13;2.33;;;;;;;;;;4971414;28;20222;-81
2022/04/09 15:08:14;;;;;;;7.53;1.93;;;;;;;;;;4976687;28;20298;-82
2022/04/09 15:10:45;;;;;;;8.50;3.37;;;;;;;;;;4977941;28;20230;-79
2022/04/09 15:13:11;;;;;;;8.13;3.00;;;;;;;;;;4994219;28;20232;-80
2022/04/09 15:15:37;;;;;;;6.37;2.10;;;;;;;;;;4987193;28;20222;-81